sensor_id;sensor_type;location;lat;lon;timestamp;pressure;altitude;pressure_sealevel;temperature;humidity
68793;BME280;55778;54.346;10.210;2023-08-08T00:02:13;100111.75;;;13.17;100.00
68793;BME280;55778;54.346;10.210;2023-08-08T00:04:38;100111.38;;;13.20;100.00
68793;BME280;55778;54.346;10.210;2023-08-08T00:07:04;100100.44;;;13.20;100.00
68793;BME280;55778;54.346;10.210;2023-08-08T00:09:29;100102.19;;;13.13;100.00
68793;BME280;55778;54.346;10.210;2023-08-08T00:11:54;100099.94;;;13.16;100.00
68793;BME280;55778;54.346;10.210;2023-08-08T00:14:22;100111.75;;;13.17;100.00
68793;BME280;55778;54.346;10.210;2023-08-08T00:16:47;100094.81;;;13.13;100.00
68793;BME280;55778;54.346;10.210;2023-08-08T00:19:12;100091.09;;;13.14;100.00
68793;BME280;55778;54.346;10.210;2023-08-08T00:21:38;100087.66;;;13.12;100.00
68793;BME280;55778;54.346;10.210;2023-08-08T00:24:03;100094.78;;;13.21;100.00
68793;BME280;55778;54.346;10.210;2023-08-08T00:26:29;100086.94;;;13.18;100.00
68793;BME280;55778;54.346;10.210;2023-08-08T00:28:54;100097.88;;;13.18;100.00
68793;BME280;55778;54.346;10.210;2023-08-08T00:31:19;100096.31;;;13.24;100.00
68793;BME280;55778;54.346;10.210;2023-08-08T00:33:45;100094.78;;;13.21;100.00
68793;BME280;55778;54.346;10.210;2023-08-08T00:36:10;100093.13;;;13.12;100.00
68793;BME280;55778;54.346;10.210;2023-08-08T00:38:36;100100.44;;;13.20;100.00
68793;BME280;55778;54.346;10.210;2023-08-08T00:41:01;100093.94;;;13.21;100.00
68793;BME280;55778;54.346;10.210;2023-08-08T00:43:26;100082.81;;;13.22;100.00
68793;BME280;55778;54.346;10.210;2023-08-08T00:45:52;100093.47;;;13.17;100.00
68793;BME280;55778;54.346;10.210;2023-08-08T00:48:18;100082.34;;;13.19;100.00
68793;BME280;55778;54.346;10.210;2023-08-08T00:50:45;100085.97;;;13.11;100.00
68793;BME280;55778;54.346;10.210;2023-08-08T00:53:11;100086.16;;;13.02;100.00
68793;BME280;55778;54.346;10.210;2023-08-08T00:55:37;100082.75;;;13.00;100.00
68793;BME280;55778;54.346;10.210;2023-08-08T00:58:04;100081.03;;;12.91;100.00
68793;BME280;55778;54.346;10.210;2023-08-08T01:00:29;100083.41;;;12.94;100.00
68793;BME280;55778;54.346;10.210;2023-08-08T01:02:54;100084.63;;;12.91;100.00
68793;BME280;55778;54.346;10.210;2023-08-08T01:05:20;100085.34;;;12.85;100.00
68793;BME280;55778;54.346;10.210;2023-08-08T01:08:04;100088.75;;;12.87;100.00
68793;BME280;55778;54.346;10.210;2023-08-08T01:10:38;100089.59;;;12.88;100.00
68793;BME280;55778;54.346;10.210;2023-08-08T01:13:16;100092.56;;;12.78;100.00
68793;BME280;55778;54.346;10.210;2023-08-08T01:15:42;100091.81;;;12.92;100.00
68793;BME280;55778;54.346;10.210;2023-08-08T01:18:09;100082.06;;;12.90;100.00
68793;BME280;55778;54.346;10.210;2023-08-08T01:20:36;100076.09;;;12.86;100.00
68793;BME280;55778;54.346;10.210;2023-08-08T01:23:19;100075.47;;;12.76;100.00
68793;BME280;55778;54.346;10.210;2023-08-08T01:25:46;100077.38;;;12.76;100.00
68793;BME280;55778;54.346;10.210;2023-08-08T01:28:12;100071.72;;;12.77;100.00
68793;BME280;55778;54.346;10.210;2023-08-08T01:30:37;100072.34;;;12.87;100.00
68793;BME280;55778;54.346;10.210;2023-08-08T01:33:03;100068.28;;;12.75;100.00
68793;BME280;55778;54.346;10.210;2023-08-08T01:35:31;100062.13;;;12.73;100.00
68793;BME280;55778;54.346;10.210;2023-08-08T01:38:04;100070.63;;;12.86;100.00
68793;BME280;55778;54.346;10.210;2023-08-08T01:40:32;100073.06;;;12.81;100.00
68793;BME280;55778;54.346;10.210;2023-08-08T01:42:58;100073.06;;;12.81;100.00
68793;BME280;55778;54.346;10.210;2023-08-08T01:45:24;100061.31;;;12.73;100.00
68793;BME280;55778;54.346;10.210;2023-08-08T01:47:52;100067.06;;;12.86;100.00
68793;BME280;55778;54.346;10.210;2023-08-08T01:50:18;100064.44;;;12.92;100.00
68793;BME280;55778;54.346;10.210;2023-08-08T01:52:44;100062.31;;;12.80;100.00
68793;BME280;55778;54.346;10.210;2023-08-08T01:55:10;100058.00;;;12.85;100.00
68793;BME280;55778;54.346;10.210;2023-08-08T01:57:35;100060.91;;;12.84;100.00
68793;BME280;55778;54.346;10.210;2023-08-08T02:00:01;100059.75;;;12.78;100.00
68793;BME280;55778;54.346;10.210;2023-08-08T02:02:29;100057.88;;;12.79;100.00
68793;BME280;55778;54.346;10.210;2023-08-08T02:04:54;100058.22;;;12.76;100.00
68793;BME280;55778;54.346;10.210;2023-08-08T02:07:20;100060.44;;;12.80;100.00
68793;BME280;55778;54.346;10.210;2023-08-08T02:09:45;100061.25;;;12.81;100.00
68793;BME280;55778;54.346;10.210;2023-08-08T02:12:11;100053.59;;;12.76;100.00
68793;BME280;55778;54.346;10.210;2023-08-08T02:14:37;100054.44;;;12.77;100.00
68793;BME280;55778;54.346;10.210;2023-08-08T02:17:02;100051.75;;;12.69;100.00
68793;BME280;55778;54.346;10.210;2023-08-08T02:19:27;100050.13;;;12.90;100.00
68793;BME280;55778;54.346;10.210;2023-08-08T02:21:54;100042.28;;;12.87;100.00
68793;BME280;55778;54.346;10.210;2023-08-08T02:24:19;100053.75;;;12.83;100.00
68793;BME280;55778;54.346;10.210;2023-08-08T02:26:44;100041.47;;;12.79;100.00
68793;BME280;55778;54.346;10.210;2023-08-08T02:29:10;100048.97;;;12.77;100.00
68793;BME280;55778;54.346;10.210;2023-08-08T02:31:35;100047.81;;;12.71;100.00
68793;BME280;55778;54.346;10.210;2023-08-08T02:34:00;100040.44;;;12.72;100.00
68793;BME280;55778;54.346;10.210;2023-08-08T02:36:26;100042.19;;;12.65;100.00
68793;BME280;55778;54.346;10.210;2023-08-08T02:38:51;100036.22;;;12.61;100.00
68793;BME280;55778;54.346;10.210;2023-08-08T02:41:19;100039.63;;;12.71;100.00
68793;BME280;55778;54.346;10.210;2023-08-08T02:43:45;100039.28;;;12.66;100.00
68793;BME280;55778;54.346;10.210;2023-08-08T02:46:10;100041.84;;;12.60;100.00
68793;BME280;55778;54.346;10.210;2023-08-08T02:48:36;100033.47;;;12.61;100.00
68793;BME280;55778;54.346;10.210;2023-08-08T02:51:01;100039.09;;;12.68;100.00
68793;BME280;55778;54.346;10.210;2023-08-08T02:53:26;100039.63;;;12.71;100.00
68793;BME280;55778;54.346;10.210;2023-08-08T02:55:52;100032.06;;;12.73;100.00
68793;BME280;55778;54.346;10.210;2023-08-08T02:58:17;100032.44;;;12.70;100.00
68793;BME280;55778;54.346;10.210;2023-08-08T03:00:42;100034.53;;;12.60;100.00
68793;BME280;55778;54.346;10.210;2023-08-08T03:03:08;100022.03;;;12.66;100.00
68793;BME280;55778;54.346;10.210;2023-08-08T03:05:33;100033.81;;;12.66;100.00
68793;BME280;55778;54.346;10.210;2023-08-08T03:07:59;100038.91;;;12.77;100.00
68793;BME280;55778;54.346;10.210;2023-08-08T03:10:24;100024.19;;;12.78;100.00
68793;BME280;55778;54.346;10.210;2023-08-08T03:12:50;100028.97;;;12.76;100.00
68793;BME280;55778;54.346;10.210;2023-08-08T03:15:15;100022.16;;;12.80;100.00
68793;BME280;55778;54.346;10.210;2023-08-08T03:17:41;100030.00;;;12.83;100.00
68793;BME280;55778;54.346;10.210;2023-08-08T03:20:07;100023.34;;;12.78;100.00
68793;BME280;55778;54.346;10.210;2023-08-08T03:22:32;100023.13;;;12.87;100.00
68793;BME280;55778;54.346;10.210;2023-08-08T03:24:58;100021.06;;;12.89;100.00
68793;BME280;55778;54.346;10.210;2023-08-08T03:27:24;100019.50;;;12.95;100.00
68793;BME280;55778;54.346;10.210;2023-08-08T03:29:50;100018.47;;;12.96;100.00
68793;BME280;55778;54.346;10.210;2023-08-08T03:32:15;100015.91;;;12.94;100.00
68793;BME280;55778;54.346;10.210;2023-08-08T03:34:41;100021.22;;;12.88;100.00
68793;BME280;55778;54.346;10.210;2023-08-08T03:37:06;100021.56;;;12.93;100.00
68793;BME280;55778;54.346;10.210;2023-08-08T03:39:31;100018.81;;;13.01;100.00
68793;BME280;55778;54.346;10.210;2023-08-08T03:41:57;100017.25;;;13.06;100.00
68793;BME280;55778;54.346;10.210;2023-08-08T03:44:22;100021.84;;;13.06;100.00
68793;BME280;55778;54.346;10.210;2023-08-08T03:46:48;100026.50;;;13.05;100.00
68793;BME280;55778;54.346;10.210;2023-08-08T03:49:15;100022.41;;;13.01;100.00
68793;BME280;55778;54.346;10.210;2023-08-08T03:51:40;100024.28;;;12.93;100.00
68793;BME280;55778;54.346;10.210;2023-08-08T03:54:06;100034.03;;;13.03;100.00
68793;BME280;55778;54.346;10.210;2023-08-08T03:56:31;100014.88;;;13.03;100.00
68793;BME280;55778;54.346;10.210;2023-08-08T03:58:57;100024.06;;;13.10;100.00
68793;BME280;55778;54.346;10.210;2023-08-08T04:01:23;100025.13;;;13.01;100.00
68793;BME280;55778;54.346;10.210;2023-08-08T04:03:48;100022.22;;;13.03;100.00
68793;BME280;55778;54.346;10.210;2023-08-08T04:06:14;100023.75;;;13.05;100.00
68793;BME280;55778;54.346;10.210;2023-08-08T04:08:39;100021.38;;;13.02;100.00
68793;BME280;55778;54.346;10.210;2023-08-08T04:11:05;100021.03;;;13.05;100.00
68793;BME280;55778;54.346;10.210;2023-08-08T04:13:30;100016.38;;;13.06;100.00
68793;BME280;55778;54.346;10.210;2023-08-08T04:15:55;100022.69;;;13.14;100.00
68793;BME280;55778;54.346;10.210;2023-08-08T04:18:21;100015.06;;;13.02;100.00
68793;BME280;55778;54.346;10.210;2023-08-08T04:20:46;100022.78;;;12.90;100.00
68793;BME280;55778;54.346;10.210;2023-08-08T04:23:14;100020.06;;;12.82;100.00
68793;BME280;55778;54.346;10.210;2023-08-08T04:25:39;100027.44;;;12.82;100.00
68793;BME280;55778;54.346;10.210;2023-08-08T04:28:05;100021.38;;;13.02;100.00
68793;BME280;55778;54.346;10.210;2023-08-08T04:30:30;100025.88;;;12.87;100.00
68793;BME280;55778;54.346;10.210;2023-08-08T04:32:56;100025.97;;;13.10;100.00
68793;BME280;55778;54.346;10.210;2023-08-08T04:35:21;100026.84;;;13.02;100.00
68793;BME280;55778;54.346;10.210;2023-08-08T04:37:47;100029.41;;;13.04;100.00
68793;BME280;55778;54.346;10.210;2023-08-08T04:40:12;100029.78;;;13.01;100.00
68793;BME280;55778;54.346;10.210;2023-08-08T04:42:38;100034.03;;;13.03;100.00
68793;BME280;55778;54.346;10.210;2023-08-08T04:45:04;100024.50;;;13.22;100.00
68793;BME280;55778;54.346;10.210;2023-08-08T04:47:29;100032.63;;;13.07;100.00
68793;BME280;55778;54.346;10.210;2023-08-08T04:49:55;100028.19;;;13.06;100.00
68793;BME280;55778;54.346;10.210;2023-08-08T04:52:20;100035.25;;;13.01;100.00
68793;BME280;55778;54.346;10.210;2023-08-08T04:54:45;100030.09;;;12.98;100.00
68793;BME280;55778;54.346;10.210;2023-08-08T04:57:11;100038.00;;;12.85;100.00
68793;BME280;55778;54.346;10.210;2023-08-08T04:59:36;100037.81;;;12.86;100.00
68793;BME280;55778;54.346;10.210;2023-08-08T05:02:02;100034.19;;;12.94;100.00
68793;BME280;55778;54.346;10.210;2023-08-08T05:04:27;100038.44;;;13.04;100.00
68793;BME280;55778;54.346;10.210;2023-08-08T05:06:52;100038.75;;;13.17;100.00
68793;BME280;55778;54.346;10.210;2023-08-08T05:09:18;100031.31;;;13.26;100.00
68793;BME280;55778;54.346;10.210;2023-08-08T05:11:45;100031.16;;;13.27;100.00
68793;BME280;55778;54.346;10.210;2023-08-08T05:14:11;100038.94;;;13.38;100.00
68793;BME280;55778;54.346;10.210;2023-08-08T05:16:36;100026.41;;;13.44;100.00
68793;BME280;55778;54.346;10.210;2023-08-08T05:19:03;100026.81;;;13.33;100.00
68793;BME280;55778;54.346;10.210;2023-08-08T05:21:28;100022.78;;;13.21;100.00
68793;BME280;55778;54.346;10.210;2023-08-08T05:23:53;100035.50;;;13.14;100.00
68793;BME280;55778;54.346;10.210;2023-08-08T05:26:19;100032.25;;;13.10;100.00
68793;BME280;55778;54.346;10.210;2023-08-08T05:28:44;100031.53;;;13.16;100.00
68793;BME280;55778;54.346;10.210;2023-08-08T05:31:10;100038.84;;;13.24;100.00
68793;BME280;55778;54.346;10.210;2023-08-08T05:33:35;100040.72;;;13.23;100.00
68793;BME280;55778;54.346;10.210;2023-08-08T05:36:01;100040.53;;;13.25;100.00
68793;BME280;55778;54.346;10.210;2023-08-08T05:38:26;100045.28;;;13.31;100.00
68793;BME280;55778;54.346;10.210;2023-08-08T05:40:51;100045.69;;;13.50;100.00
68793;BME280;55778;54.346;10.210;2023-08-08T05:43:17;100038.72;;;13.70;100.00
68793;BME280;55778;54.346;10.210;2023-08-08T05:45:46;100039.44;;;13.87;100.00
68793;BME280;55778;54.346;10.210;2023-08-08T05:48:11;100026.00;;;13.92;100.00
68793;BME280;55778;54.346;10.210;2023-08-08T05:50:38;100021.63;;;13.83;100.00
68793;BME280;55778;54.346;10.210;2023-08-08T05:53:04;100025.84;;;13.71;100.00
68793;BME280;55778;54.346;10.210;2023-08-08T05:55:29;100027.81;;;13.62;100.00
68793;BME280;55778;54.346;10.210;2023-08-08T05:57:54;100031.81;;;13.52;100.00
68793;BME280;55778;54.346;10.210;2023-08-08T06:00:20;100034.28;;;13.47;100.00
68793;BME280;55778;54.346;10.210;2023-08-08T06:02:45;100036.28;;;13.53;100.00
68793;BME280;55778;54.346;10.210;2023-08-08T06:05:11;100031.03;;;13.66;100.00
68793;BME280;55778;54.346;10.210;2023-08-08T06:07:37;100033.69;;;13.74;100.00
68793;BME280;55778;54.346;10.210;2023-08-08T06:10:02;100027.19;;;13.75;100.00
68793;BME280;55778;54.346;10.210;2023-08-08T06:12:28;100031.50;;;13.69;100.00
68793;BME280;55778;54.346;10.210;2023-08-08T06:14:53;100023.44;;;13.90;100.00
68793;BME280;55778;54.346;10.210;2023-08-08T06:17:19;100022.13;;;13.86;100.00
68793;BME280;55778;54.346;10.210;2023-08-08T06:19:45;100001.91;;;13.87;100.00
68793;BME280;55778;54.346;10.210;2023-08-08T06:22:11;100027.84;;;13.77;100.00
68793;BME280;55778;54.346;10.210;2023-08-08T06:24:37;100033.66;;;13.59;100.00
68793;BME280;55778;54.346;10.210;2023-08-08T06:27:04;100047.63;;;13.42;100.00
68793;BME280;55778;54.346;10.210;2023-08-08T06:29:29;100055.44;;;13.22;100.00
68793;BME280;55778;54.346;10.210;2023-08-08T06:31:56;100038.59;;;13.11;100.00
68793;BME280;55778;54.346;10.210;2023-08-08T06:34:21;100040.97;;;13.14;100.00
68793;BME280;55778;54.346;10.210;2023-08-08T06:36:46;100048.00;;;12.70;100.00
68793;BME280;55778;54.346;10.210;2023-08-08T06:39:12;100041.38;;;12.56;100.00
68793;BME280;55778;54.346;10.210;2023-08-08T06:41:37;100047.56;;;12.42;100.00
68793;BME280;55778;54.346;10.210;2023-08-08T06:44:04;100056.44;;;12.44;100.00
68793;BME280;55778;54.346;10.210;2023-08-08T06:46:29;100061.69;;;12.54;100.00
68793;BME280;55778;54.346;10.210;2023-08-08T06:48:55;100056.75;;;12.57;100.00
68793;BME280;55778;54.346;10.210;2023-08-08T06:51:24;100057.06;;;12.62;100.00
68793;BME280;55778;54.346;10.210;2023-08-08T06:53:50;100048.00;;;12.62;100.00
68793;BME280;55778;54.346;10.210;2023-08-08T06:56:15;100051.09;;;12.59;100.00
68793;BME280;55778;54.346;10.210;2023-08-08T06:58:41;100051.97;;;12.59;100.00
68793;BME280;55778;54.346;10.210;2023-08-08T07:01:07;100054.97;;;12.80;100.00
68793;BME280;55778;54.346;10.210;2023-08-08T07:03:32;100047.00;;;13.01;100.00
68793;BME280;55778;54.346;10.210;2023-08-08T07:05:57;100053.03;;;13.27;100.00
68793;BME280;55778;54.346;10.210;2023-08-08T07:08:23;100052.84;;;13.29;100.00
68793;BME280;55778;54.346;10.210;2023-08-08T07:10:49;100050.16;;;13.51;100.00
68793;BME280;55778;54.346;10.210;2023-08-08T07:13:14;100046.59;;;13.65;100.00
68793;BME280;55778;54.346;10.210;2023-08-08T07:15:41;100042.06;;;13.95;100.00
68793;BME280;55778;54.346;10.210;2023-08-08T07:18:06;100034.50;;;14.20;100.00
68793;BME280;55778;54.346;10.210;2023-08-08T07:20:31;100017.34;;;14.40;100.00
68793;BME280;55778;54.346;10.210;2023-08-08T07:22:57;100022.16;;;14.38;100.00
68793;BME280;55778;54.346;10.210;2023-08-08T07:25:22;100017.53;;;14.39;100.00
68793;BME280;55778;54.346;10.210;2023-08-08T07:27:48;100017.97;;;14.28;100.00
68793;BME280;55778;54.346;10.210;2023-08-08T07:30:13;100003.50;;;14.19;100.00
68793;BME280;55778;54.346;10.210;2023-08-08T07:32:39;100005.75;;;14.16;100.00
68793;BME280;55778;54.346;10.210;2023-08-08T07:35:05;100002.94;;;13.72;100.00
68793;BME280;55778;54.346;10.210;2023-08-08T07:37:34;100009.53;;;13.32;100.00
68793;BME280;55778;54.346;10.210;2023-08-08T07:39:59;100014.41;;;13.22;100.00
68793;BME280;55778;54.346;10.210;2023-08-08T07:42:25;100011.72;;;13.37;100.00
68793;BME280;55778;54.346;10.210;2023-08-08T07:44:51;100022.41;;;13.54;100.00
68793;BME280;55778;54.346;10.210;2023-08-08T07:47:16;100015.25;;;14.05;100.00
68793;BME280;55778;54.346;10.210;2023-08-08T07:49:42;100025.00;;;13.93;100.00
68793;BME280;55778;54.346;10.210;2023-08-08T07:52:07;100034.75;;;13.73;100.00
68793;BME280;55778;54.346;10.210;2023-08-08T07:54:34;100033.66;;;13.59;100.00
68793;BME280;55778;54.346;10.210;2023-08-08T07:56:59;100034.50;;;13.60;100.00
68793;BME280;55778;54.346;10.210;2023-08-08T07:59:25;100023.56;;;13.60;100.00
68793;BME280;55778;54.346;10.210;2023-08-08T08:01:50;100019.53;;;13.48;100.00
68793;BME280;55778;54.346;10.210;2023-08-08T08:04:16;100024.28;;;13.54;100.00
68793;BME280;55778;54.346;10.210;2023-08-08T08:06:41;100017.75;;;13.77;100.00
68793;BME280;55778;54.346;10.210;2023-08-08T08:09:06;100012.53;;;14.05;100.00
68793;BME280;55778;54.346;10.210;2023-08-08T08:11:33;100004.09;;;14.29;100.00
68793;BME280;55778;54.346;10.210;2023-08-08T08:13:58;100011.66;;;14.56;100.00
68793;BME280;55778;54.346;10.210;2023-08-08T08:16:24;100007.75;;;14.94;100.00
68793;BME280;55778;54.346;10.210;2023-08-08T08:18:49;99984.00;;;15.01;100.00
68793;BME280;55778;54.346;10.210;2023-08-08T08:21:14;99975.25;;;15.12;100.00
68793;BME280;55778;54.346;10.210;2023-08-08T08:23:42;99968.59;;;14.86;100.00
68793;BME280;55778;54.346;10.210;2023-08-08T08:26:08;99978.00;;;14.62;100.00
68793;BME280;55778;54.346;10.210;2023-08-08T08:28:33;99984.34;;;14.48;100.00
68793;BME280;55778;54.346;10.210;2023-08-08T08:31:04;99980.09;;;14.46;100.00
68793;BME280;55778;54.346;10.210;2023-08-08T08:33:30;99977.25;;;14.54;100.00
68793;BME280;55778;54.346;10.210;2023-08-08T08:35:55;99985.19;;;14.34;100.00
68793;BME280;55778;54.346;10.210;2023-08-08T08:38:20;100002.28;;;14.36;100.00
68793;BME280;55778;54.346;10.210;2023-08-08T08:40:46;100002.09;;;14.38;100.00
68793;BME280;55778;54.346;10.210;2023-08-08T08:43:13;99997.59;;;14.45;100.00
68793;BME280;55778;54.346;10.210;2023-08-08T08:45:40;100000.53;;;14.06;100.00
68793;BME280;55778;54.346;10.210;2023-08-08T08:48:10;100000.22;;;13.86;100.00
68793;BME280;55778;54.346;10.210;2023-08-08T08:50:38;100004.19;;;13.84;100.00
68793;BME280;55778;54.346;10.210;2023-08-08T08:53:05;99998.03;;;13.82;100.00
68793;BME280;55778;54.346;10.210;2023-08-08T08:55:30;99992.38;;;13.83;100.00
68793;BME280;55778;54.346;10.210;2023-08-08T08:57:56;99997.16;;;13.81;100.00
68793;BME280;55778;54.346;10.210;2023-08-08T09:00:21;100004.84;;;13.63;100.00
68793;BME280;55778;54.346;10.210;2023-08-08T09:02:48;100008.31;;;13.57;100.00
68793;BME280;55778;54.346;10.210;2023-08-08T09:05:15;100000.44;;;13.62;100.00
68793;BME280;55778;54.346;10.210;2023-08-08T09:07:43;99998.66;;;13.69;100.00
68793;BME280;55778;54.346;10.210;2023-08-08T09:10:08;99989.47;;;13.62;100.00
68793;BME280;55778;54.346;10.210;2023-08-08T09:12:34;100004.03;;;13.63;100.00
68793;BME280;55778;54.346;10.210;2023-08-08T09:14:59;99993.63;;;13.95;100.00
68793;BME280;55778;54.346;10.210;2023-08-08T09:17:27;99982.25;;;14.50;100.00
68793;BME280;55778;54.346;10.210;2023-08-08T09:19:53;99976.69;;;14.58;100.00
68793;BME280;55778;54.346;10.210;2023-08-08T09:22:20;99977.53;;;14.59;100.00
68793;BME280;55778;54.346;10.210;2023-08-08T09:24:45;99971.41;;;14.57;100.00
68793;BME280;55778;54.346;10.210;2023-08-08T09:27:11;99959.53;;;14.71;100.00
68793;BME280;55778;54.346;10.210;2023-08-08T09:29:37;99965.75;;;14.79;100.00
68793;BME280;55778;54.346;10.210;2023-08-08T09:32:04;99953.53;;;14.96;100.00
68793;BME280;55778;54.346;10.210;2023-08-08T09:34:30;99952.00;;;15.08;100.00
68793;BME280;55778;54.346;10.210;2023-08-08T09:36:56;99946.06;;;15.26;100.00
68793;BME280;55778;54.346;10.210;2023-08-08T09:39:21;99939.31;;;15.70;100.00
68793;BME280;55778;54.346;10.210;2023-08-08T09:41:47;99941.84;;;15.93;100.00
68793;BME280;55778;54.346;10.210;2023-08-08T09:44:12;99931.00;;;16.19;100.00
68793;BME280;55778;54.346;10.210;2023-08-08T09:46:39;99934.44;;;16.55;100.00
68793;BME280;55778;54.346;10.210;2023-08-08T09:49:06;99932.72;;;16.54;100.00
68793;BME280;55778;54.346;10.210;2023-08-08T09:51:31;99926.75;;;16.98;100.00
68793;BME280;55778;54.346;10.210;2023-08-08T09:53:59;99939.00;;;16.82;100.00
68793;BME280;55778;54.346;10.210;2023-08-08T09:56:25;99933.66;;;16.74;100.00
68793;BME280;55778;54.346;10.210;2023-08-08T09:58:52;99934.31;;;16.76;100.00
68793;BME280;55778;54.346;10.210;2023-08-08T10:01:19;99944.75;;;16.47;100.00
68793;BME280;55778;54.346;10.210;2023-08-08T10:03:45;99922.88;;;16.73;100.00
68793;BME280;55778;54.346;10.210;2023-08-08T10:06:11;99925.75;;;17.18;100.00
68793;BME280;55778;54.346;10.210;2023-08-08T10:08:36;99934.66;;;17.27;100.00
68793;BME280;55778;54.346;10.210;2023-08-08T10:11:02;99933.97;;;16.99;100.00
68793;BME280;55778;54.346;10.210;2023-08-08T10:13:29;99936.19;;;17.29;100.00
68793;BME280;55778;54.346;10.210;2023-08-08T10:15:55;99908.88;;;17.67;100.00
68793;BME280;55778;54.346;10.210;2023-08-08T10:18:23;99920.34;;;17.83;100.00
68793;BME280;55778;54.346;10.210;2023-08-08T10:20:50;99917.81;;;17.95;100.00
68793;BME280;55778;54.346;10.210;2023-08-08T10:23:19;99918.56;;;18.41;100.00
68793;BME280;55778;54.346;10.210;2023-08-08T10:25:51;99915.53;;;18.69;100.00
68793;BME280;55778;54.346;10.210;2023-08-08T10:28:20;99905.13;;;18.64;94.78
68793;BME280;55778;54.346;10.210;2023-08-08T10:30:53;99896.69;;;19.03;91.96
68793;BME280;55778;54.346;10.210;2023-08-08T10:33:22;99905.47;;;19.31;91.68
68793;BME280;55778;54.346;10.210;2023-08-08T10:36:03;99899.38;;;19.10;85.96
68793;BME280;55778;54.346;10.210;2023-08-08T10:38:42;99896.00;;;18.64;81.95
68793;BME280;55778;54.346;10.210;2023-08-08T10:41:14;99888.88;;;18.24;83.30
68793;BME280;55778;54.346;10.210;2023-08-08T10:43:49;99883.66;;;17.70;87.31
68793;BME280;55778;54.346;10.210;2023-08-08T10:46:23;99891.53;;;17.66;90.83
68793;BME280;55778;54.346;10.210;2023-08-08T10:48:53;99872.72;;;18.34;87.33
68793;BME280;55778;54.346;10.210;2023-08-08T10:51:20;99878.72;;;18.81;83.76
68793;BME280;55778;54.346;10.210;2023-08-08T10:53:45;99883.66;;;17.89;88.43
68793;BME280;55778;54.346;10.210;2023-08-08T10:56:14;99891.25;;;17.29;88.93
68793;BME280;55778;54.346;10.210;2023-08-08T10:58:41;99909.22;;;17.05;97.79
68793;BME280;55778;54.346;10.210;2023-08-08T11:01:07;99926.28;;;16.07;100.00
68793;BME280;55778;54.346;10.210;2023-08-08T11:03:36;99933.63;;;15.30;100.00
68793;BME280;55778;54.346;10.210;2023-08-08T11:06:02;99927.41;;;14.65;100.00
68793;BME280;55778;54.346;10.210;2023-08-08T11:08:30;99943.28;;;14.69;100.00
68793;BME280;55778;54.346;10.210;2023-08-08T11:10:57;99943.63;;;14.81;100.00
68793;BME280;55778;54.346;10.210;2023-08-08T11:13:22;99946.75;;;14.92;100.00
68793;BME280;55778;54.346;10.210;2023-08-08T11:15:48;99941.53;;;15.18;100.00
68793;BME280;55778;54.346;10.210;2023-08-08T11:18:13;99943.03;;;15.21;100.00
68793;BME280;55778;54.346;10.210;2023-08-08T11:20:39;99946.63;;;15.21;100.00
68793;BME280;55778;54.346;10.210;2023-08-08T11:23:04;99939.69;;;15.25;100.00
68793;BME280;55778;54.346;10.210;2023-08-08T11:25:35;99923.25;;;15.46;100.00
68793;BME280;55778;54.346;10.210;2023-08-08T11:28:01;99934.72;;;15.77;100.00
68793;BME280;55778;54.346;10.210;2023-08-08T11:30:33;99955.69;;;16.40;100.00
68793;BME280;55778;54.346;10.210;2023-08-08T11:32:59;99939.31;;;16.60;100.00
68793;BME280;55778;54.346;10.210;2023-08-08T11:35:25;99937.41;;;17.14;100.00
68793;BME280;55778;54.346;10.210;2023-08-08T11:37:53;99931.19;;;16.92;100.00
68793;BME280;55778;54.346;10.210;2023-08-08T11:40:19;99937.19;;;17.09;100.00
68793;BME280;55778;54.346;10.210;2023-08-08T11:42:46;99923.09;;;17.57;100.00
68793;BME280;55778;54.346;10.210;2023-08-08T11:45:12;99934.31;;;17.49;100.00
68793;BME280;55778;54.346;10.210;2023-08-08T11:47:39;99935.31;;;17.29;96.97
68793;BME280;55778;54.346;10.210;2023-08-08T11:50:07;99937.81;;;17.04;100.00
68793;BME280;55778;54.346;10.210;2023-08-08T11:52:36;99954.38;;;17.17;99.43
68793;BME280;55778;54.346;10.210;2023-08-08T11:55:05;99941.03;;;17.21;100.00
68793;BME280;55778;54.346;10.210;2023-08-08T11:57:33;99944.88;;;17.39;100.00
68793;BME280;55778;54.346;10.210;2023-08-08T12:00:00;99959.44;;;17.27;100.00
68793;BME280;55778;54.346;10.210;2023-08-08T12:02:27;99962.69;;;17.37;97.30
68793;BME280;55778;54.346;10.210;2023-08-08T12:04:52;99957.56;;;17.40;100.00
68793;BME280;55778;54.346;10.210;2023-08-08T12:07:18;99959.31;;;17.48;96.14
68793;BME280;55778;54.346;10.210;2023-08-08T12:09:47;99957.44;;;18.07;82.18
68793;BME280;55778;54.346;10.210;2023-08-08T12:12:13;99947.91;;;18.03;80.03
68793;BME280;55778;54.346;10.210;2023-08-08T12:14:39;99956.38;;;18.41;79.58
68793;BME280;55778;54.346;10.210;2023-08-08T12:17:06;99971.81;;;18.68;77.89
68793;BME280;55778;54.346;10.210;2023-08-08T12:19:32;99970.47;;;18.77;81.89
68793;BME280;55778;54.346;10.210;2023-08-08T12:21:57;99980.56;;;17.93;80.60
68793;BME280;55778;54.346;10.210;2023-08-08T12:24:23;99978.97;;;17.32;86.44
68793;BME280;55778;54.346;10.210;2023-08-08T12:26:48;99992.31;;;16.81;93.27
68793;BME280;55778;54.346;10.210;2023-08-08T12:29:13;99987.91;;;16.87;100.00